Latest Weather Observations for Laverton

IDW60801

Issued at 12:23 pm WST Saturday 24 August 2019 (issued every 10 minutes, with the page automatically refreshed every 10 minutes)

About weather observations | Map of weather stations | Latest weather observations for WA | Other Formats
Station Details ID: 012305 Name: LAVERTON AERO Lat: -28.61 Lon: 122.42 Height: 464.3 m
Data from the previous 72 hours. | See also: Recent months at Laverton
Date/Time
WST
Temp
°C
App
Temp
°C
Dew
Point
°C
Rel
Hum
%
Delta-T
°C
Wind Press
QNH
hPa
Press
MSL
hPa
Rain since
9am
mm
Dir  Spd
km/h
Gust
km/h
Spd
kts
Gust
kts
24/12:00pm 16.6 13.1 1.1 35 6.9 SSE 9 20 5 11 1024.7 1024.2 0.0
24/11:30am 16.3 11.2 0.8 35 6.9 ESE 17 35 9 19 1025.0 1024.5 0.0
24/11:00am 14.8 9.8 1.3 40 6.0 SSE 17 30 9 16 1025.3 1024.9 0.0
24/10:30am 14.6 9.3 2.8 45 5.4 SE 20 33 11 18 1025.7 1025.2 0.0
24/10:00am 14.3 9.3 3.7 49 4.9 ESE 19 28 10 15 1025.9 1025.4 0.0
24/09:30am 13.3 7.7 3.4 51 4.6 SE 22 30 12 16 1026.0 1025.5 0.0
24/09:00am 13.0 7.1 3.9 54 4.2 ESE 24 30 13 16 1025.9 1025.4 0.0
24/08:30am 11.9 5.2 3.7 57 3.8 ESE 28 35 15 19 1025.8 1025.3 0.0
24/08:00am 11.2 5.6 3.7 60 3.4 ESE 22 30 12 16 1025.7 1025.2 0.0
24/07:30am 10.1 4.9 3.8 65 2.8 ESE 20 24 11 13 1025.3 1024.9 0.0
24/07:00am 9.2 4.9 3.4 67 2.6 ESE 15 22 8 12 1024.9 1024.4 0.0
24/06:30am 8.6 3.8 2.4 65 2.7 ESE 17 20 9 11 1024.7 1024.2 0.0
24/06:00am 8.6 3.7 2.0 63 2.8 SE 17 20 9 11 1024.1 1023.6 0.0
24/05:30am 8.2 4.3 0.9 60 3.0 SE 11 15 6 8 1023.9 1023.4 0.0
24/05:00am 8.4 4.3 0.1 56 3.4 SE 11 15 6 8 1023.7 1023.2 0.0
24/04:30am 8.9 4.4 -0.4 52 3.8 SSE 13 17 7 9 1023.2 1022.7 0.0
24/04:00am 9.3 4.8 -0.6 50 4.0 SSE 13 19 7 10 1022.9 1022.4 0.0
24/03:30am 10.1 5.2 -0.4 48 4.3 SSE 15 19 8 10 1022.7 1022.2 0.0
24/03:00am 10.8 5.5 -0.3 46 4.6 SSE 17 20 9 11 1022.6 1022.1 0.0
24/02:30am 11.3 6.0 -0.5 44 4.9 SSE 17 20 9 11 1022.7 1022.2 0.0
24/02:00am 12.0 6.3 -0.8 41 5.3 S 19 26 10 14 1022.4 1021.9 0.0
24/01:30am 12.8 6.9 -1.1 38 5.8 S 20 28 11 15 1022.4 1021.9 0.0
24/01:00am 13.4 8.4 -1.0 37 6.0 S 15 28 8 15 1022.5 1022.0 0.0
24/12:30am 13.9 7.9 -1.3 35 6.3 S 20 26 11 14 1022.6 1022.1 0.0
24/12:00am 14.2 7.9 -1.0 35 6.4 SSE 22 30 12 16 1022.5 1022.0 0.0
 
Date/Time
WST
Temp
°C
App
Temp
°C
Dew
Point
°C
Rel
Hum
%
Delta-T
°C
Wind Press
QNH
hPa
Press
MSL
hPa
Rain since
9am
mm
Dir  Spd
km/h
Gust
km/h
Spd
kts
Gust
kts
23/11:30pm 14.6 7.9 -1.1 34 6.6 SSE 24 33 13 18 1022.3 1021.8 0.0
23/11:00pm 15.1 7.8 0.2 36 6.5 S 28 37 15 20 1021.9 1021.4 0.0
23/10:30pm 15.7 9.6 2.5 41 6.1 S 24 35 13 19 1022.0 1021.5 0.0
23/10:00pm 15.9 10.7 3.4 43 5.8 S 20 28 11 15 1021.8 1021.3 0.0
23/09:30pm 16.0 11.0 4.7 47 5.5 SSE 20 30 11 16 1021.7 1021.2 0.0
23/09:00pm 16.4 12.1 5.4 48 5.4 S 17 26 9 14 1021.6 1021.1 0.0
23/08:30pm 16.4 12.1 5.4 48 5.4 S 17 24 9 13 1021.5 1021.0 0.0
23/08:00pm 16.6 11.4 5.6 48 5.4 S 22 30 12 16 1021.2 1020.6 0.0
23/07:30pm 17.1 10.7 5.4 46 5.8 S 28 39 15 21 1020.6 1020.1 0.0
23/07:00pm 18.3 13.5 5.8 44 6.3 SSW 20 30 11 16 1020.0 1019.5 0.0
23/06:30pm 18.8 13.8 6.6 45 6.2 SSW 22 30 12 16 1019.6 1019.1 0.0
23/06:00pm 19.9 15.1 7.3 44 6.6 WSW 22 30 12 16 1019.0 1018.4 0.0
23/05:30pm 20.3 15.9 7.3 43 6.8 WSW 20 30 11 16 1018.5 1018.0 0.0
23/05:00pm 20.5 15.2 6.8 41 7.1 WSW 24 33 13 18 1018.3 1017.8 0.0
23/04:30pm 20.5 15.2 6.8 41 7.1 SW 24 33 13 18 1017.9 1017.4 0.0
23/04:00pm 21.7 15.7 5.2 34 8.4 W 26 33 14 18 1017.5 1016.9 0.0
23/03:30pm 22.3 15.6 3.4 29 9.3 W 28 41 15 22 1017.3 1016.7 0.0
23/03:00pm 22.6 16.1 2.7 27 9.7 W 26 33 14 18 1017.2 1016.6 0.0
23/02:30pm 22.9 16.1 0.7 23 10.4 W 26 37 14 20 1017.4 1016.8 0.0
23/02:00pm 23.2 16.1 -1.0 20 11.0 WSW 26 35 14 19 1017.3 1016.7 0.0
23/01:30pm 23.1 15.5 -2.5 18 11.3 WSW 28 37 15 20 1017.3 1016.7 0.0
23/01:00pm 24.6 16.4 -3.7 15 12.4 WSW 30 43 16 23 1017.4 1016.8 0.0
23/12:42pm 24.7 17.3 -3.6 15 12.4 W 26 46 14 25 1017.4 1016.8 0.0
23/12:30pm 24.5 16.3 -3.8 15 12.4 WNW 30 43 16 23 1017.6 1017.0 0.0
23/12:00pm 24.0 17.2 -5.1 14 12.3 WNW 22 32 12 17 1018.0 1017.5 0.0
23/11:30am 22.4 16.2 -8.4 12 12.1 WNW 17 28 9 15 1018.5 1018.0 0.0
23/11:00am 22.2 15.5 -7.5 13 11.8 W 20 28 11 15 1019.0 1018.4 0.0
23/10:30am 21.2 14.8 -11.6 10 11.9 WNW 17 24 9 13 1019.3 1018.7 0.0
23/10:00am 20.1 13.6 -13.7 9 11.6 NW 17 22 9 12 1019.4 1018.8 0.0
23/09:30am 18.5 12.0 -13.6 10 10.9 NW 17 22 9 12 1019.5 1018.9 0.0
23/09:00am 16.9 9.8 -13.7 11 10.1 NW 20 26 11 14 1019.9 1019.4 0.0
23/08:30am 15.8 8.9 -13.5 12 9.6 NNW 19 26 10 14 1020.0 1019.5 0.0
23/08:00am 14.9 8.0 -13.2 13 9.1 NNW 19 24 10 13 1020.2 1019.7 0.0
23/07:30am 14.6 7.5 -13.5 13 9.1 NW 20 30 11 16 1020.1 1019.6 0.0
23/07:00am 14.8 8.7 -13.3 13 9.1 NNW 15 20 8 11 1019.6 1019.1 0.0
23/06:30am 13.5 7.4 -12.6 15 8.4 N 15 19 8 10 1019.0 1018.4 0.0
23/06:00am 13.1 7.0 -12.9 15 8.3 N 15 20 8 11 1018.5 1018.0 0.0
23/05:30am 12.8 6.4 -12.4 16 8.1 N 17 22 9 12 1018.3 1017.8 0.0
23/05:00am 12.6 6.5 -12.5 16 8.0 N 15 20 8 11 1018.2 1017.7 0.0
23/04:30am 12.6 6.1 -12.5 16 8.0 N 17 20 9 11 1018.3 1017.8 0.0
23/04:00am 13.1 6.7 -12.1 16 8.2 N 17 20 9 11 1018.0 1017.5 0.0
23/03:30am 12.9 6.4 -13.1 15 8.3 N 17 20 9 11 1018.1 1017.6 0.0
23/03:00am 13.4 6.9 -12.7 15 8.4 N 17 20 9 11 1018.1 1017.6 0.0
23/02:30am 13.5 7.0 -13.4 14 8.6 N 17 20 9 11 1018.4 1017.9 0.0
23/02:00am 13.3 6.8 -12.8 15 8.4 N 17 20 9 11 1018.8 1018.2 0.0
23/01:30am 13.7 6.8 -13.3 14 8.6 N 19 24 10 13 1019.1 1018.5 0.0
23/01:00am 11.5 5.4 -12.7 17 7.6 NNE 15 17 8 9 1019.8 1019.3 0.0
23/12:30am 11.3 5.6 -12.8 17 7.5 N 13 15 7 8 1020.1 1019.6 0.0
23/12:00am 13.6 7.5 -12.5 15 8.4 N 15 20 8 11 1020.1 1019.6 0.0
 
Date/Time
WST
Temp
°C
App
Temp
°C
Dew
Point
°C
Rel
Hum
%
Delta-T
°C
Wind Press
QNH
hPa
Press
MSL
hPa
Rain since
9am
mm
Dir  Spd
km/h
Gust
km/h
Spd
kts
Gust
kts
22/11:30pm 12.4 6.3 -12.7 16 8.0 NNE 15 17 8 9 1020.4 1019.9 0.0
22/11:00pm 12.6 6.5 -12.5 16 8.0 NNE 15 15 8 8 1020.6 1020.1 0.0
22/10:30pm 13.5 8.2 -12.6 15 8.4 N 11 13 6 7 1020.9 1020.4 0.0
22/10:00pm 14.9 8.4 -13.2 13 9.1 NNE 17 19 9 10 1020.6 1020.1 0.0
22/09:30pm 14.0 8.3 -12.2 15 8.6 NNE 13 17 7 9 1021.2 1020.6 0.0
22/09:00pm 13.3 7.6 -12.8 15 8.3 NNE 13 15 7 8 1021.6 1021.1 0.0
22/08:30pm 14.1 8.0 -13.0 14 8.8 NNE 15 15 8 8 1021.7 1021.2 0.0
22/08:00pm 13.6 7.9 -12.5 15 8.4 N 13 15 7 8 1021.7 1021.2 0.0
22/07:30pm 14.6 9.2 -13.5 13 9.1 N 11 13 6 7 1021.5 1021.0 0.0
22/07:00pm 16.2 10.4 -14.3 11 9.8 N 13 13 7 7 1021.3 1020.7 0.0
22/06:30pm 17.7 12.3 -14.3 10 10.6 N 11 13 6 7 1021.1 1020.5 0.0
22/06:00pm 19.7 14.7 -14.0 9 11.5 N 9 13 5 7 1020.9 1020.4 0.0
22/05:30pm 21.8 15.6 -13.9 8 12.5 NNW 15 20 8 11 1021.1 1020.5 0.0
22/05:00pm 23.2 16.1 -14.5 7 13.3 N 20 26 11 14 1020.9 1020.4 0.0
22/04:30pm 23.8 16.7 -14.0 7 13.6 NNW 20 28 11 15 1021.1 1020.5 0.0
22/04:00pm 24.1 17.2 -13.8 7 13.6 N 19 24 10 13 1021.1 1020.5 0.0
22/03:30pm 24.2 17.3 -13.7 7 13.7 NNW 19 28 10 15 1021.3 1020.7 0.0
22/03:00pm 24.9 18.0 -13.2 7 14.0 N 19 30 10 16 1021.4 1020.8 0.0
22/02:30pm 24.5 17.4 -13.5 7 13.9 N 20 30 11 16 1021.7 1021.2 0.0
22/02:00pm 24.2 17.4 -12.1 8 13.5 N 19 32 10 17 1022.1 1021.6 0.0
22/01:30pm 23.8 16.4 -12.4 8 13.4 NNW 22 32 12 17 1022.4 1021.9 0.0
22/01:00pm 23.4 15.6 -12.7 8 13.1 NNW 24 32 13 17 1022.8 1022.3 0.0
22/12:30pm 22.9 14.7 -13.1 8 13.0 NNW 26 43 14 23 1023.4 1022.9 0.0
22/12:00pm 22.5 13.6 -11.9 9 12.6 N 30 44 16 24 1024.0 1023.5 0.0
22/11:30am 22.7 14.2 -11.8 9 12.7 NNW 28 35 15 19 1024.5 1024.0 0.0
22/11:00am 21.9 12.7 -11.1 10 12.2 N 32 44 17 24 1025.1 1024.7 0.0
22/10:30am 21.7 14.2 -8.9 12 11.8 N 24 33 13 18 1025.7 1025.2 0.0
22/10:00am 20.6 12.7 -8.7 13 11.2 N 26 35 14 19 1025.8 1025.3 0.0
22/09:30am 19.3 11.5 -7.9 15 10.4 NNE 26 33 14 18 1026.1 1025.6 0.0
22/09:00am 17.8 9.2 -7.5 17 9.6 NNE 30 41 16 22 1026.2 1025.7 0.0
22/08:30am 16.5 8.8 -6.5 20 8.8 NNE 26 35 14 19 1026.3 1025.8 0.0
22/08:00am 14.6 6.5 -6.8 22 7.9 NNE 28 44 15 24 1026.5 1026.0 0.0
22/07:30am 13.2 5.9 -6.4 25 7.3 NE 24 33 13 18 1026.3 1025.8 0.0
22/07:00am 11.7 5.1 -6.6 27 6.6 NE 20 26 11 14 1026.4 1025.9 0.0
22/06:30am 11.2 4.8 -6.6 28 6.4 NE 19 24 10 13 1026.2 1025.7 0.0
22/06:00am 10.5 4.9 -6.8 29 6.1 NE 15 20 8 11 1025.9 1025.4 0.0
22/05:30am 6.5 1.2 -7.5 36 4.6 ENE 13 15 7 8 1025.8 1025.3 0.0
22/05:00am 6.6 0.9 -7.4 36 4.6 E 15 15 8 8 1025.5 1025.1 0.0
22/04:30am 5.9 -0.2 -7.7 37 4.4 ENE 17 19 9 10 1025.4 1025.0 0.0
22/04:00am 6.6 0.9 -7.7 35 4.7 ENE 15 17 8 9 1025.4 1025.0 0.0
22/03:30am 7.6 2.3 -7.6 33 5.1 ENE 13 15 7 8 1025.5 1025.1 0.0
22/03:00am 7.1 1.8 -7.7 34 4.9 ENE 13 15 7 8 1025.7 1025.2 0.0
22/02:30am 7.3 1.9 -7.9 33 5.0 ENE 13 13 7 7 1025.8 1025.3 0.0
22/02:00am 8.1 2.0 -8.0 31 5.3 ENE 17 19 9 10 1026.0 1025.5 0.0
22/01:30am 8.6 2.1 -8.0 30 5.6 E 19 20 10 11 1026.1 1025.6 0.0
22/01:00am 8.3 2.2 -7.8 31 5.4 ENE 17 19 9 10 1026.4 1025.9 0.0
22/12:30am 8.5 2.7 -8.1 30 5.6 E 15 17 8 9 1026.6 1026.1 0.0
22/12:00am 8.6 2.9 -8.0 30 5.5 E 15 17 8 9 1026.7 1026.2 0.0
 
Date/Time
WST
Temp
°C
App
Temp
°C
Dew
Point
°C
Rel
Hum
%
Delta-T
°C
Wind Press
QNH
hPa
Press
MSL
hPa
Rain since
9am
mm
Dir  Spd
km/h
Gust
km/h
Spd
kts
Gust
kts
21/11:30pm 9.0 2.9 -8.1 29 5.8 ENE 17 19 9 10 1026.8 1026.3 0.0
21/11:00pm 9.0 3.3 -7.6 30 5.6 ENE 15 17 8 9 1027.0 1026.6 0.0
21/10:30pm 10.0 3.9 -7.6 28 6.1 E 17 19 9 10 1027.2 1026.8 0.0
21/10:00pm 10.8 4.7 -7.4 27 6.3 E 17 19 9 10 1027.2 1026.8 0.0
21/09:30pm 10.7 4.6 -7.5 27 6.4 ENE 17 20 9 11 1027.5 1027.1 0.0
21/09:00pm 11.0 5.3 -7.3 27 6.4 ENE 15 17 8 9 1027.7 1027.3 0.0
21/08:30pm 11.5 5.4 -7.3 26 6.7 ENE 17 17 9 9 1027.5 1027.1 0.0
21/08:00pm 12.2 6.5 -7.2 25 6.9 ENE 15 17 8 9 1027.4 1027.0 0.0
21/07:30pm 13.1 7.8 -7.5 23 7.4 ENE 13 13 7 7 1027.2 1026.8 0.0
21/07:00pm 14.4 9.5 -7.0 22 7.9 ENE 11 11 6 6 1027.0 1026.6 0.0
21/06:30pm 16.0 11.1 -7.6 19 8.8 E 11 11 6 6 1026.7 1026.2 0.0
21/06:00pm 18.2 12.8 -8.0 16 9.9 ENE 13 17 7 9 1026.6 1026.1 0.0
21/05:30pm 19.6 13.1 -7.7 15 10.6 NE 19 24 10 13 1026.5 1026.0 0.0
21/05:00pm 20.6 14.1 -7.8 14 11.0 NE 19 26 10 14 1026.3 1025.8 0.0
21/04:30pm 21.2 14.5 -8.3 13 11.5 ENE 20 28 11 15 1026.3 1025.8 0.0
21/04:00pm 21.2 14.7 -8.3 13 11.4 ENE 19 24 10 13 1026.3 1025.8 0.0
21/03:30pm 21.9 15.5 -6.8 14 11.6 NE 19 32 10 17 1026.4 1025.9 0.0
21/03:00pm 21.4 14.8 -7.2 14 11.3 NE 20 33 11 18 1026.6 1026.1 0.0
21/02:30pm 21.5 14.5 -7.1 14 11.4 NE 22 32 12 17 1026.9 1026.4 0.0
21/02:00pm 20.9 13.9 -6.7 15 11.0 NE 22 32 12 17 1027.2 1026.8 0.0
21/01:30pm 21.5 14.8 -4.5 17 10.9 NE 22 33 12 18 1027.5 1027.1 0.0
21/01:00pm 20.1 13.3 -4.9 18 10.2 ENE 22 32 12 17 1028.1 1027.6 0.0
21/12:30pm 20.0 13.0 -3.6 20 9.9 NE 24 33 13 18 1028.5 1028.0 0.0

Other formats

Comma delimited format used in spreadsheet applications
http://www.bom.gov.au/fwo/IDW60801/IDW60801.94449.axf

JavaScript Object Notation format (JSON) in row-major order
http://www.bom.gov.au/fwo/IDW60801/IDW60801.94449.json

Data quality

Most of these data are generated automatically and are frequently updated. Quality checks on data are not normally performed. It is possible for incorrect values to appear. Refer to information at About Latest Weather Observations and please check the disclaimer before using these data.